Pays
Station

 

Conditions  météo  pour  Vestmannaeyjar  -  Islande    Islande

  
8 °C
    
 
 

METAR pour Vestmannaeyjar :

BIVM 221600Z 18035G45KT 9999 HZ FEW030 08/07 Q0984

 

Voici le bulletin pour Vestmannaeyjar - Islande.
 
Le bulletin a été fait il y a 16 minutes, à 16:00 UTC .
Le vent soufflait à la vitesse de 18.0 mètres par seconde avec des rafales jusqu'à 23.1 mètres par seconde de Sud (180°).
 
La température était de 8 °C, avec un point de rosée à 7 °C.
La pression atmosphérique était de 984 hPa.
L'humidité relative était de 93.4%.
 
Il y avait 1 à 2/8ème de nébulosité à une hauteur de 914 mètres.
 
La visibilité globale était de supérieure à 10 kilomètres.
 
Actuellement brume.

 
 
 

Pays :   A   B   C   D   E   F   G   H   I   J   K   L   M   N   O   P   Q   R   S   T   U   V   W   Y   Z

 

Partenaires :  Info Météo avec Met'info
Météo Marine avec MeteoMarine.net
Infos Site  |  Infos Légales  |  Crédits  |  Confidentialité
Contactez-nous  |  Ajouter aux favoris
© 2013-2019 METAR - Tous droits réservés